sensor_id;sensor_type;location;lat;lon;timestamp;P1;durP1;ratioP1;P2;durP2;ratioP2
15557;SDS011;7880;50.110;9.372;2022-11-11T00:04:28;18.538461538461537;;;9.630769230769229;;
15557;SDS011;7880;50.110;9.372;2022-11-11T00:09:31;17.623076923076923;;;9.13076923076923;;
15557;SDS011;7880;50.110;9.372;2022-11-11T00:14:35;24.084615384615397;;;11.269230769230765;;
15557;SDS011;7880;50.110;9.372;2022-11-11T00:26:33;22.63076923076923;;;9.66153846153846;;
15557;SDS011;7880;50.110;9.372;2022-11-11T00:31:34;15.99230769230769;;;8.930769230769231;;
15557;SDS011;7880;50.110;9.372;2022-11-11T00:36:38;21.523076923076914;;;9.099999999999998;;
15557;SDS011;7880;50.110;9.372;2022-11-11T00:41:42;17.046153846153842;;;8.530769230769232;;
15557;SDS011;7880;50.110;9.372;2022-11-11T00:53:39;12.730769230769228;;;7.900000000000001;;
15557;SDS011;7880;50.110;9.372;2022-11-11T00:58:48;11.553846153846157;;;6.83846153846154;;
15557;SDS011;7880;50.110;9.372;2022-11-11T01:03:47;14.284615384615384;;;6.5;;
15557;SDS011;7880;50.110;9.372;2022-11-11T01:08:52;13.507692307692306;;;6.407692307692307;;
15557;SDS011;7880;50.110;9.372;2022-11-11T01:13:54;10.06153846153846;;;5.799999999999998;;
15557;SDS011;7880;50.110;9.372;2022-11-11T01:18:58;10.623076923076924;;;5.130769230769232;;
15557;SDS011;7880;50.110;9.372;2022-11-11T01:24:01;9.353846153846154;;;5.969230769230771;;
15557;SDS011;7880;50.110;9.372;2022-11-11T01:29:07;12.153846153846157;;;5.638461538461541;;
15557;SDS011;7880;50.110;9.372;2022-11-11T01:34:11;11.900000000000004;;;6.330769230769231;;
15557;SDS011;7880;50.110;9.372;2022-11-11T01:39:16;11.023076923076925;;;5.538461538461537;;
15557;SDS011;7880;50.110;9.372;2022-11-11T01:44:37;13.407692307692304;;;5.838461538461539;;
15557;SDS011;7880;50.110;9.372;2022-11-11T01:49:23;9.13076923076923;;;5.592307692307691;;
15557;SDS011;7880;50.110;9.372;2022-11-11T01:54:26;8.023076923076925;;;5.700000000000002;;
15557;SDS011;7880;50.110;9.372;2022-11-11T01:59:26;8.200000000000001;;;5.200000000000001;;
15557;SDS011;7880;50.110;9.372;2022-11-11T02:05:42;6.830769230769231;;;4.33076923076923;;
15557;SDS011;7880;50.110;9.372;2022-11-11T02:10:22;6.830769230769231;;;4.33076923076923;;
15557;SDS011;7880;50.110;9.372;2022-11-11T02:15:25;9.700000000000001;;;4.13846153846154;;
15557;SDS011;7880;50.110;9.372;2022-11-11T02:20:29;7.638461538461538;;;4.546153846153846;;
15557;SDS011;7880;50.110;9.372;2022-11-11T02:25:34;7.06923076923077;;;4.3999999999999995;;
15557;SDS011;7880;50.110;9.372;2022-11-11T02:30:39;7.738461538461538;;;4.261538461538462;;
15557;SDS011;7880;50.110;9.372;2022-11-11T02:42:33;7.47692307692308;;;4.299999999999999;;
15557;SDS011;7880;50.110;9.372;2022-11-11T02:47:35;7.046153846153846;;;3.661538461538462;;
15557;SDS011;7880;50.110;9.372;2022-11-11T02:52:44;4.5;;;3.3615384615384603;;
15557;SDS011;7880;50.110;9.372;2022-11-11T02:57:44;8.861538461538462;;;3.9384615384615382;;
15557;SDS011;7880;50.110;9.372;2022-11-11T03:02:47;5.838461538461539;;;4.36153846153846;;
15557;SDS011;7880;50.110;9.372;2022-11-11T03:07:51;6.715384615384618;;;4.238461538461538;;
15557;SDS011;7880;50.110;9.372;2022-11-11T03:12:54;6.3538461538461535;;;3.776923076923076;;
15557;SDS011;7880;50.110;9.372;2022-11-11T03:17:58;5.653846153846155;;;3.038461538461539;;
15557;SDS011;7880;50.110;9.372;2022-11-11T03:23:07;8.538461538461537;;;4.3999999999999995;;
15557;SDS011;7880;50.110;9.372;2022-11-11T03:28:06;8.46153846153846;;;3.7307692307692295;;
15557;SDS011;7880;50.110;9.372;2022-11-11T03:33:10;8.507692307692308;;;4.338461538461538;;
15557;SDS011;7880;50.110;9.372;2022-11-11T03:38:15;9.138461538461538;;;4.200000000000001;;
15557;SDS011;7880;50.110;9.372;2022-11-11T03:43:18;8.538461538461537;;;4.661538461538462;;
15557;SDS011;7880;50.110;9.372;2022-11-11T03:48:23;7.238461538461538;;;4.461538461538461;;
15557;SDS011;7880;50.110;9.372;2022-11-11T03:51:48;10.27692307692308;;;4.753846153846153;;
15557;SDS011;7880;50.110;9.372;2022-11-11T03:57:29;9.846153846153843;;;4.6000000000000005;;
15557;SDS011;7880;50.110;9.372;2022-11-11T04:10:31;12.323076923076922;;;5.938461538461538;;
15557;SDS011;7880;50.110;9.372;2022-11-11T04:16:16;9.615384615384617;;;5.138461538461541;;
15557;SDS011;7880;50.110;9.372;2022-11-11T04:22:00;9.184615384615384;;;5.661538461538461;;
15557;SDS011;7880;50.110;9.372;2022-11-11T04:26:44;8.346153846153848;;;5.176923076923076;;
15557;SDS011;7880;50.110;9.372;2022-11-11T04:32:34;8.123076923076924;;;5.038461538461538;;
15557;SDS011;7880;50.110;9.372;2022-11-11T04:37:14;12.961538461538462;;;5.3307692307692305;;
15557;SDS011;7880;50.110;9.372;2022-11-11T04:42:17;8.238461538461536;;;4.569230769230769;;
15557;SDS011;7880;50.110;9.372;2022-11-11T04:47:20;10.146153846153844;;;5.0;;
15557;SDS011;7880;50.110;9.372;2022-11-11T04:52:26;8.200000000000001;;;3.8769230769230774;;
15557;SDS011;7880;50.110;9.372;2022-11-11T04:57:27;9.400000000000002;;;3.7999999999999994;;
15557;SDS011;7880;50.110;9.372;2022-11-11T05:03:35;7.846153846153844;;;3.7000000000000006;;
15557;SDS011;7880;50.110;9.372;2022-11-11T05:09:20;5.076923076923078;;;3.538461538461539;;
15557;SDS011;7880;50.110;9.372;2022-11-11T05:21:25;5.799999999999998;;;3.338461538461538;;
15557;SDS011;7880;50.110;9.372;2022-11-11T05:26:12;5.584615384615386;;;2.5615384615384618;;
15557;SDS011;7880;50.110;9.372;2022-11-11T05:31:10;4.338461538461538;;;2.7;;
15557;SDS011;7880;50.110;9.372;2022-11-11T05:36:14;5.923076923076922;;;2.7384615384615376;;
15557;SDS011;7880;50.110;9.372;2022-11-11T05:41:18;5.476923076923076;;;2.4384615384615382;;
15557;SDS011;7880;50.110;9.372;2022-11-11T05:46:21;3.8615384615384603;;;2.3000000000000003;;
15557;SDS011;7880;50.110;9.372;2022-11-11T05:51:30;4.561538461538462;;;3.0;;
15557;SDS011;7880;50.110;9.372;2022-11-11T05:56:28;10.461538461538463;;;4.1000000000000005;;
15557;SDS011;7880;50.110;9.372;2022-11-11T06:01:31;6.299999999999998;;;3.7000000000000006;;
15557;SDS011;7880;50.110;9.372;2022-11-11T06:06:35;7.761538461538462;;;4.299999999999999;;
15557;SDS011;7880;50.110;9.372;2022-11-11T06:11:41;11.384615384615383;;;5.961538461538463;;
15557;SDS011;7880;50.110;9.372;2022-11-11T06:16:44;6.061538461538462;;;4.3999999999999995;;
15557;SDS011;7880;50.110;9.372;2022-11-11T06:22:04;7.061538461538462;;;3.2384615384615367;;
15557;SDS011;7880;50.110;9.372;2022-11-11T06:27:01;4.5;;;3.2692307692307705;;
15557;SDS011;7880;50.110;9.372;2022-11-11T06:31:55;7.507692307692309;;;3.423076923076922;;
15557;SDS011;7880;50.110;9.372;2022-11-11T06:36:59;4.130769230769232;;;2.93076923076923;;
15557;SDS011;7880;50.110;9.372;2022-11-11T06:42:01;4.200000000000001;;;2.7;;
15557;SDS011;7880;50.110;9.372;2022-11-11T06:47:05;2.7;;;2.0;;
15557;SDS011;7880;50.110;9.372;2022-11-11T06:52:09;4.8999999999999995;;;2.838461538461538;;
15557;SDS011;7880;50.110;9.372;2022-11-11T06:57:13;8.746153846153847;;;3.5;;
15557;SDS011;7880;50.110;9.372;2022-11-11T07:02:17;11.323076923076922;;;5.461538461538463;;
15557;SDS011;7880;50.110;9.372;2022-11-11T07:07:21;8.261538461538462;;;4.299999999999999;;
15557;SDS011;7880;50.110;9.372;2022-11-11T07:12:25;7.89230769230769;;;4.430769230769231;;
15557;SDS011;7880;50.110;9.372;2022-11-11T07:17:29;6.923076923076922;;;2.1999999999999997;;
15557;SDS011;7880;50.110;9.372;2022-11-11T07:22:34;3.100000000000001;;;1.9384615384615387;;
15557;SDS011;7880;50.110;9.372;2022-11-11T07:27:35;5.384615384615386;;;2.2615384615384615;;
15557;SDS011;7880;50.110;9.372;2022-11-11T07:32:43;4.261538461538462;;;1.9384615384615387;;
15557;SDS011;7880;50.110;9.372;2022-11-11T07:37:44;1.5615384615384613;;;1.3384615384615384;;
15557;SDS011;7880;50.110;9.372;2022-11-11T07:42:47;3.030769230769231;;;1.6999999999999995;;
15557;SDS011;7880;50.110;9.372;2022-11-11T07:47:54;3.438461538461538;;;1.0;;
15557;SDS011;7880;50.110;9.372;2022-11-11T07:52:55;2.3615384615384616;;;1.3000000000000003;;
15557;SDS011;7880;50.110;9.372;2022-11-11T07:58:03;2.4384615384615382;;;1.1384615384615382;;
15557;SDS011;7880;50.110;9.372;2022-11-11T08:03:04;1.6615384615384619;;;1.361538461538462;;
15557;SDS011;7880;50.110;9.372;2022-11-11T08:08:13;1.4615384615384612;;;1.1999999999999997;;
15557;SDS011;7880;50.110;9.372;2022-11-11T08:13:49;2.7692307692307705;;;1.1999999999999997;;
15557;SDS011;7880;50.110;9.372;2022-11-11T08:18:29;1.2692307692307692;;;1.0;;
15557;SDS011;7880;50.110;9.372;2022-11-11T08:23:32;4.323076923076924;;;1.0999999999999999;;
15557;SDS011;7880;50.110;9.372;2022-11-11T08:28:36;2.8692307692307684;;;1.5;;
15557;SDS011;7880;50.110;9.372;2022-11-11T08:33:41;2.5153846153846158;;;1.676923076923077;;
15557;SDS011;7880;50.110;9.372;2022-11-11T08:38:54;4.1692307692307695;;;2.0;;
15557;SDS011;7880;50.110;9.372;2022-11-11T08:43:50;2.1999999999999997;;;1.6;;
15557;SDS011;7880;50.110;9.372;2022-11-11T08:48:52;2.8692307692307684;;;1.8999999999999997;;
15557;SDS011;7880;50.110;9.372;2022-11-11T08:53:55;2.3999999999999995;;;1.4;;
15557;SDS011;7880;50.110;9.372;2022-11-11T08:59:03;2.5;;;1.3692307692307695;;
15557;SDS011;7880;50.110;9.372;2022-11-11T09:04:00;2.0;;;1.8000000000000005;;
15557;SDS011;7880;50.110;9.372;2022-11-11T09:09:06;1.8000000000000005;;;1.530769230769231;;
15557;SDS011;7880;50.110;9.372;2022-11-11T09:14:10;5.438461538461538;;;2.1000000000000005;;
15557;SDS011;7880;50.110;9.372;2022-11-11T09:19:10;2.8;;;2.0;;
15557;SDS011;7880;50.110;9.372;2022-11-11T09:24:14;3.869230769230768;;;1.6999999999999995;;
15557;SDS011;7880;50.110;9.372;2022-11-11T09:29:18;3.0;;;2.1000000000000005;;
15557;SDS011;7880;50.110;9.372;2022-11-11T09:34:24;1.6;;;1.5;;
15557;SDS011;7880;50.110;9.372;2022-11-11T09:39:29;4.138461538461539;;;2.0;;
15557;SDS011;7880;50.110;9.372;2022-11-11T09:44:33;1.6999999999999995;;;1.6;;
15557;SDS011;7880;50.110;9.372;2022-11-11T09:49:49;4.06923076923077;;;1.6615384615384614;;
15557;SDS011;7880;50.110;9.372;2022-11-11T09:54:49;4.838461538461538;;;2.0692307692307694;;
15557;SDS011;7880;50.110;9.372;2022-11-11T09:59:45;5.269230769230769;;;2.030769230769231;;
15557;SDS011;7880;50.110;9.372;2022-11-11T10:04:53;2.6000000000000005;;;2.3999999999999995;;
15557;SDS011;7880;50.110;9.372;2022-11-11T10:09:52;3.399999999999999;;;1.8999999999999997;;
15557;SDS011;7880;50.110;9.372;2022-11-11T10:14:56;2.8;;;1.6999999999999995;;
15557;SDS011;7880;50.110;9.372;2022-11-11T10:20:01;3.56923076923077;;;1.8999999999999997;;
15557;SDS011;7880;50.110;9.372;2022-11-11T10:25:06;9.053846153846155;;;1.861538461538461;;
15557;SDS011;7880;50.110;9.372;2022-11-11T10:30:13;4.738461538461538;;;1.8000000000000005;;
15557;SDS011;7880;50.110;9.372;2022-11-11T10:35:12;2.0692307692307694;;;1.3000000000000003;;
15557;SDS011;7880;50.110;9.372;2022-11-11T10:40:16;3.146153846153846;;;1.4307692307692308;;
15557;SDS011;7880;50.110;9.372;2022-11-11T10:45:26;1.0999999999999999;;;1.0;;
15557;SDS011;7880;50.110;9.372;2022-11-11T10:50:31;3.238461538461539;;;1.1999999999999997;;
15557;SDS011;7880;50.110;9.372;2022-11-11T10:55:31;1.4;;;1.0999999999999999;;
15557;SDS011;7880;50.110;9.372;2022-11-11T11:00:32;6.10769230769231;;;1.3000000000000003;;
15557;SDS011;7880;50.110;9.372;2022-11-11T11:05:39;1.0923076923076924;;;0.9000000000000002;;
15557;SDS011;7880;50.110;9.372;2022-11-11T11:10:47;3.838461538461539;;;1.0307692307692307;;
15557;SDS011;7880;50.110;9.372;2022-11-11T11:15:49;1.4;;;0.8692307692307695;;
15557;SDS011;7880;50.110;9.372;2022-11-11T11:20:58;2.6000000000000005;;;1.0307692307692307;;
15557;SDS011;7880;50.110;9.372;2022-11-11T11:25:54;1.0307692307692307;;;0.9307692307692309;;
15557;SDS011;7880;50.110;9.372;2022-11-11T11:31:01;1.6;;;0.8;;
15557;SDS011;7880;50.110;9.372;2022-11-11T11:36:03;3.0384615384615383;;;0.8;;
15557;SDS011;7880;50.110;9.372;2022-11-11T11:41:06;1.3692307692307695;;;0.6692307692307693;;
15557;SDS011;7880;50.110;9.372;2022-11-11T11:46:17;4.738461538461538;;;1.0999999999999999;;
15557;SDS011;7880;50.110;9.372;2022-11-11T11:51:24;0.8;;;0.8;;
15557;SDS011;7880;50.110;9.372;2022-11-11T11:56:26;1.1999999999999997;;;0.8;;
15557;SDS011;7880;50.110;9.372;2022-11-11T12:01:32;4.407692307692309;;;1.0999999999999999;;
15557;SDS011;7880;50.110;9.372;2022-11-11T12:06:35;1.969230769230769;;;0.9000000000000002;;
15557;SDS011;7880;50.110;9.372;2022-11-11T12:11:37;1.7692307692307692;;;0.9307692307692309;;
15557;SDS011;7880;50.110;9.372;2022-11-11T12:16:42;1.0;;;0.7;;
15557;SDS011;7880;50.110;9.372;2022-11-11T12:21:52;1.5692307692307692;;;1.3000000000000003;;
15557;SDS011;7880;50.110;9.372;2022-11-11T12:26:59;1.8999999999999997;;;0.9000000000000002;;
15557;SDS011;7880;50.110;9.372;2022-11-11T12:31:59;4.569230769230769;;;1.1307692307692305;;
15557;SDS011;7880;50.110;9.372;2022-11-11T12:36:59;2.7692307692307705;;;1.1999999999999997;;
15557;SDS011;7880;50.110;9.372;2022-11-11T12:42:07;2.592307692307692;;;1.1999999999999997;;
15557;SDS011;7880;50.110;9.372;2022-11-11T12:47:15;2.0;;;1.1999999999999997;;
15557;SDS011;7880;50.110;9.372;2022-11-11T12:52:15;3.169230769230769;;;1.6;;
15557;SDS011;7880;50.110;9.372;2022-11-11T12:57:16;2.830769230769231;;;1.7307692307692308;;
15557;SDS011;7880;50.110;9.372;2022-11-11T13:02:25;4.269230769230769;;;1.6;;
15557;SDS011;7880;50.110;9.372;2022-11-11T13:07:28;2.469230769230769;;;1.3692307692307695;;
15557;SDS011;7880;50.110;9.372;2022-11-11T13:12:28;5.0076923076923086;;;2.1000000000000005;;
15557;SDS011;7880;50.110;9.372;2022-11-11T13:17:32;1.9846153846153844;;;1.530769230769231;;
15557;SDS011;7880;50.110;9.372;2022-11-11T13:22:36;6.0076923076923086;;;1.5692307692307692;;
15557;SDS011;7880;50.110;9.372;2022-11-11T13:27:42;3.5;;;1.6;;
15557;SDS011;7880;50.110;9.372;2022-11-11T13:32:46;5.307692307692306;;;1.8692307692307695;;
15557;SDS011;7880;50.110;9.372;2022-11-11T13:37:49;2.3999999999999995;;;1.4;;
15557;SDS011;7880;50.110;9.372;2022-11-11T13:42:54;3.6384615384615384;;;2.469230769230769;;
15557;SDS011;7880;50.110;9.372;2022-11-11T13:48:00;1.6923076923076918;;;1.2307692307692308;;
15557;SDS011;7880;50.110;9.372;2022-11-11T13:53:11;2.5;;;1.6;;
15557;SDS011;7880;50.110;9.372;2022-11-11T13:58:17;4.207692307692307;;;1.4;;
15557;SDS011;7880;50.110;9.372;2022-11-11T14:03:33;2.0692307692307694;;;1.469230769230769;;
15557;SDS011;7880;50.110;9.372;2022-11-11T14:08:59;6.369230769230768;;;2.7692307692307705;;
15557;SDS011;7880;50.110;9.372;2022-11-11T14:13:39;4.8999999999999995;;;2.1999999999999997;;
15557;SDS011;7880;50.110;9.372;2022-11-11T14:18:44;4.538461538461538;;;1.4;;
15557;SDS011;7880;50.110;9.372;2022-11-11T14:23:51;2.630769230769231;;;1.530769230769231;;
15557;SDS011;7880;50.110;9.372;2022-11-11T14:28:56;12.900000000000004;;;7.400000000000001;;
15557;SDS011;7880;50.110;9.372;2022-11-11T14:33:59;2.8;;;2.1999999999999997;;
15557;SDS011;7880;50.110;9.372;2022-11-11T14:39:05;3.030769230769231;;;2.330769230769231;;
15557;SDS011;7880;50.110;9.372;2022-11-11T14:44:36;3.7692307692307705;;;2.669230769230769;;
15557;SDS011;7880;50.110;9.372;2022-11-11T14:49:43;11.769230769230765;;;7.830769230769231;;
15557;SDS011;7880;50.110;9.372;2022-11-11T14:54:32;4.3999999999999995;;;2.8;;
15557;SDS011;7880;50.110;9.372;2022-11-11T14:59:35;2.7;;;2.0;;
15557;SDS011;7880;50.110;9.372;2022-11-11T15:04:35;4.700000000000001;;;2.93076923076923;;
15557;SDS011;7880;50.110;9.372;2022-11-11T15:09:44;8.569230769230769;;;5.200000000000001;;
15557;SDS011;7880;50.110;9.372;2022-11-11T15:15:52;5.107692307692308;;;2.8;;
15557;SDS011;7880;50.110;9.372;2022-11-11T15:20:52;6.130769230769232;;;3.261538461538461;;
15557;SDS011;7880;50.110;9.372;2022-11-11T15:25:48;6.5;;;3.93076923076923;;
15557;SDS011;7880;50.110;9.372;2022-11-11T15:30:55;6.469230769230771;;;2.430769230769231;;
15557;SDS011;7880;50.110;9.372;2022-11-11T15:35:56;4.3999999999999995;;;2.93076923076923;;
15557;SDS011;7880;50.110;9.372;2022-11-11T15:41:00;4.469230769230769;;;3.56923076923077;;
15557;SDS011;7880;50.110;9.372;2022-11-11T15:46:03;10.307692307692308;;;4.1000000000000005;;
15557;SDS011;7880;50.110;9.372;2022-11-11T15:51:15;6.0;;;3.7307692307692295;;
15557;SDS011;7880;50.110;9.372;2022-11-11T15:56:24;5.438461538461538;;;3.469230769230769;;
15557;SDS011;7880;50.110;9.372;2022-11-11T16:01:16;4.799999999999999;;;3.469230769230769;;
15557;SDS011;7880;50.110;9.372;2022-11-11T16:06:34;5.838461538461538;;;3.369230769230768;;
15557;SDS011;7880;50.110;9.372;2022-11-11T16:11:23;6.707692307692307;;;2.8;;
15557;SDS011;7880;50.110;9.372;2022-11-11T16:16:36;3.7692307692307705;;;3.2;;
15557;SDS011;7880;50.110;9.372;2022-11-11T16:21:39;5.6692307692307695;;;3.2;;
15557;SDS011;7880;50.110;9.372;2022-11-11T16:26:38;5.1000000000000005;;;3.2;;
15557;SDS011;7880;50.110;9.372;2022-11-11T16:31:50;5.1692307692307695;;;3.3307692307692305;;
15557;SDS011;7880;50.110;9.372;2022-11-11T16:37:04;11.599999999999996;;;5.3307692307692305;;
15557;SDS011;7880;50.110;9.372;2022-11-11T16:41:52;5.1000000000000005;;;3.8307692307692305;;
15557;SDS011;7880;50.110;9.372;2022-11-11T16:47:03;5.292307692307692;;;4.200000000000001;;
15557;SDS011;7880;50.110;9.372;2022-11-11T16:52:05;5.938461538461538;;;4.06923076923077;;
15557;SDS011;7880;50.110;9.372;2022-11-11T16:57:03;4.961538461538461;;;3.630769230769232;;
15557;SDS011;7880;50.110;9.372;2022-11-11T17:02:17;6.3461538461538485;;;4.700000000000001;;
15557;SDS011;7880;50.110;9.372;2022-11-11T17:07:19;8.238461538461536;;;5.56923076923077;;
15557;SDS011;7880;50.110;9.372;2022-11-11T17:12:16;5.607692307692307;;;3.030769230769231;;
15557;SDS011;7880;50.110;9.372;2022-11-11T17:17:21;6.669230769230769;;;3.5;;
15557;SDS011;7880;50.110;9.372;2022-11-11T17:22:25;6.269230769230769;;;5.4;;
15557;SDS011;7880;50.110;9.372;2022-11-11T17:27:30;9.569230769230769;;;4.96923076923077;;
15557;SDS011;7880;50.110;9.372;2022-11-11T17:32:35;12.915384615384614;;;6.169230769230769;;
15557;SDS011;7880;50.110;9.372;2022-11-11T17:37:39;10.869230769230771;;;6.5;;
15557;SDS011;7880;50.110;9.372;2022-11-11T17:42:45;8.961538461538462;;;4.530769230769231;;
15557;SDS011;7880;50.110;9.372;2022-11-11T17:48:01;4.869230769230769;;;4.200000000000001;;
15557;SDS011;7880;50.110;9.372;2022-11-11T17:52:55;6.761538461538464;;;3.93076923076923;;
15557;SDS011;7880;50.110;9.372;2022-11-11T17:58:01;4.96923076923077;;;4.23076923076923;;
15557;SDS011;7880;50.110;9.372;2022-11-11T18:03:02;5.46923076923077;;;4.130769230769232;;
15557;SDS011;7880;50.110;9.372;2022-11-11T18:08:06;8.315384615384616;;;5.66153846153846;;
15557;SDS011;7880;50.110;9.372;2022-11-11T18:13:13;12.023076923076928;;;6.0;;
15557;SDS011;7880;50.110;9.372;2022-11-11T18:18:15;9.599999999999998;;;6.592307692307691;;
15557;SDS011;7880;50.110;9.372;2022-11-11T18:23:21;7.792307692307693;;;6.230769230769231;;
15557;SDS011;7880;50.110;9.372;2022-11-11T18:28:25;9.192307692307692;;;6.969230769230771;;
15557;SDS011;7880;50.110;9.372;2022-11-11T18:33:35;15.476923076923075;;;12.161538461538463;;
15557;SDS011;7880;50.110;9.372;2022-11-11T18:38:34;6.299999999999998;;;5.299999999999999;;
15557;SDS011;7880;50.110;9.372;2022-11-11T18:43:40;4.792307692307692;;;4.23076923076923;;
15557;SDS011;7880;50.110;9.372;2022-11-11T18:48:42;5.861538461538463;;;4.23846153846154;;
15557;SDS011;7880;50.110;9.372;2022-11-11T18:53:48;5.06923076923077;;;4.369230769230769;;
15557;SDS011;7880;50.110;9.372;2022-11-11T18:58:53;9.538461538461538;;;4.530769230769231;;
15557;SDS011;7880;50.110;9.372;2022-11-11T19:03:57;9.730769230769234;;;6.0;;
15557;SDS011;7880;50.110;9.372;2022-11-11T19:09:01;7.769230769230769;;;5.8307692307692305;;
15557;SDS011;7880;50.110;9.372;2022-11-11T19:12:22;10.646153846153847;;;7.038461538461538;;
15557;SDS011;7880;50.110;9.372;2022-11-11T19:17:26;6.630769230769232;;;5.230769230769231;;
15557;SDS011;7880;50.110;9.372;2022-11-11T19:22:31;6.938461538461538;;;4.299999999999999;;
15557;SDS011;7880;50.110;9.372;2022-11-11T19:27:35;7.576923076923077;;;4.6000000000000005;;
15557;SDS011;7880;50.110;9.372;2022-11-11T19:32:39;10.430769230769231;;;4.061538461538462;;
15557;SDS011;7880;50.110;9.372;2022-11-11T19:37:46;5.0;;;4.130769230769232;;
15557;SDS011;7880;50.110;9.372;2022-11-11T19:42:51;4.461538461538462;;;4.0307692307692315;;
15557;SDS011;7880;50.110;9.372;2022-11-11T19:47:52;4.661538461538462;;;3.7999999999999994;;
15557;SDS011;7880;50.110;9.372;2022-11-11T19:53:04;5.799999999999998;;;3.2;;
15557;SDS011;7880;50.110;9.372;2022-11-11T19:58:00;4.738461538461538;;;3.2692307692307705;;
15557;SDS011;7880;50.110;9.372;2022-11-11T20:03:07;8.200000000000001;;;5.130769230769232;;
15557;SDS011;7880;50.110;9.372;2022-11-11T20:08:10;11.738461538461536;;;8.069230769230769;;
15557;SDS011;7880;50.110;9.372;2022-11-11T20:13:15;18.25384615384615;;;10.076923076923078;;
15557;SDS011;7880;50.110;9.372;2022-11-11T20:18:19;11.7;;;6.369230769230768;;
15557;SDS011;7880;50.110;9.372;2022-11-11T20:23:23;8.969230769230771;;;7.0;;
15557;SDS011;7880;50.110;9.372;2022-11-11T20:28:30;5.769230769230767;;;3.8692307692307684;;
15557;SDS011;7880;50.110;9.372;2022-11-11T20:33:32;6.669230769230769;;;3.399999999999999;;
15557;SDS011;7880;50.110;9.372;2022-11-11T20:38:42;6.507692307692308;;;3.7000000000000006;;
15557;SDS011;7880;50.110;9.372;2022-11-11T20:43:43;4.946153846153846;;;3.100000000000001;;
15557;SDS011;7880;50.110;9.372;2022-11-11T20:48:48;4.569230769230769;;;3.2999999999999994;;
15557;SDS011;7880;50.110;9.372;2022-11-11T20:53:53;6.969230769230771;;;3.2307692307692295;;
15557;SDS011;7880;50.110;9.372;2022-11-11T20:59:02;4.86153846153846;;;3.5615384615384618;;
15557;SDS011;7880;50.110;9.372;2022-11-11T21:04:00;4.200000000000001;;;2.838461538461538;;
15557;SDS011;7880;50.110;9.372;2022-11-11T21:09:05;6.038461538461541;;;3.5;;
15557;SDS011;7880;50.110;9.372;2022-11-11T21:14:22;4.530769230769231;;;3.7000000000000006;;
15557;SDS011;7880;50.110;9.372;2022-11-11T21:19:14;4.8999999999999995;;;3.4384615384615382;;
15557;SDS011;7880;50.110;9.372;2022-11-11T21:24:18;5.200000000000001;;;3.7000000000000006;;
15557;SDS011;7880;50.110;9.372;2022-11-11T21:29:24;6.5384615384615365;;;3.7999999999999994;;
15557;SDS011;7880;50.110;9.372;2022-11-11T21:34:25;5.299999999999999;;;3.2384615384615367;;
15557;SDS011;7880;50.110;9.372;2022-11-11T21:39:37;4.576923076923078;;;3.6384615384615397;;
15557;SDS011;7880;50.110;9.372;2022-11-11T21:44:35;6.684615384615384;;;3.8615384615384603;;
15557;SDS011;7880;50.110;9.372;2022-11-11T21:49:40;4.676923076923076;;;3.3769230769230774;;
15557;SDS011;7880;50.110;9.372;2022-11-11T21:54:45;4.223076923076923;;;3.0;;
15557;SDS011;7880;50.110;9.372;2022-11-11T21:59:50;5.276923076923078;;;3.276923076923076;;
15557;SDS011;7880;50.110;9.372;2022-11-11T22:05:03;5.276923076923078;;;4.038461538461539;;
15557;SDS011;7880;50.110;9.372;2022-11-11T22:10:01;5.299999999999999;;;3.5;;
15557;SDS011;7880;50.110;9.372;2022-11-11T22:15:11;5.130769230769232;;;3.5;;
15557;SDS011;7880;50.110;9.372;2022-11-11T22:20:15;5.761538461538462;;;3.0;;
15557;SDS011;7880;50.110;9.372;2022-11-11T22:25:18;6.1230769230769235;;;4.061538461538462;;
15557;SDS011;7880;50.110;9.372;2022-11-11T22:30:24;5.3307692307692305;;;3.43076923076923;;
15557;SDS011;7880;50.110;9.372;2022-11-11T22:35:30;7.861538461538459;;;3.7000000000000006;;
15557;SDS011;7880;50.110;9.372;2022-11-11T22:40:29;4.776923076923077;;;3.8769230769230774;;
15557;SDS011;7880;50.110;9.372;2022-11-11T22:45:34;5.838461538461539;;;3.7999999999999994;;
15557;SDS011;7880;50.110;9.372;2022-11-11T22:50:42;7.869230769230768;;;3.399999999999999;;
15557;SDS011;7880;50.110;9.372;2022-11-11T22:55:42;7.361538461538459;;;4.200000000000001;;
15557;SDS011;7880;50.110;9.372;2022-11-11T23:00:47;5.661538461538461;;;3.600000000000001;;
15557;SDS011;7880;50.110;9.372;2022-11-11T23:05:51;5.476923076923075;;;3.600000000000001;;
15557;SDS011;7880;50.110;9.372;2022-11-11T23:10:55;8.746153846153847;;;4.161538461538462;;
15557;SDS011;7880;50.110;9.372;2022-11-11T23:15:59;5.700000000000002;;;3.961538461538461;;
15557;SDS011;7880;50.110;9.372;2022-11-11T23:21:03;4.5;;;2.838461538461538;;
15557;SDS011;7880;50.110;9.372;2022-11-11T23:26:07;4.799999999999999;;;3.576923076923078;;
15557;SDS011;7880;50.110;9.372;2022-11-11T23:31:13;5.823076923076924;;;3.7999999999999994;;
15557;SDS011;7880;50.110;9.372;2022-11-11T23:36:17;7.0230769230769265;;;4.538461538461539;;